createdAt,value
2019-02-25T00:01:02.451Z,57.46
2019-02-25T00:07:08.493Z,56.48
2019-02-25T00:09:39.928Z,56.75
2019-02-25T00:12:11.118Z,58.40
2019-02-25T00:14:43.057Z,58.48
2019-02-25T00:17:14.250Z,59.23
2019-02-25T00:19:45.908Z,57.28
2019-02-25T00:22:17.110Z,55.46
2019-02-25T00:24:50.767Z,52.88
2019-02-25T00:27:21.953Z,54.04
2019-02-25T00:29:53.158Z,53.27
2019-02-25T00:32:24.771Z,54.27
2019-02-25T00:34:55.989Z,53.40
2019-02-25T00:37:27.243Z,55.77
2019-02-25T00:39:58.917Z,55.68
2019-02-25T00:42:30.116Z,54.98
2019-02-25T00:45:01.950Z,52.97
2019-02-25T00:47:33.144Z,53.01
2019-02-25T00:50:05.895Z,53.26
2019-02-25T00:52:37.465Z,54.09
2019-02-25T00:55:10.413Z,54.98
2019-02-25T00:57:42.068Z,53.29
2019-02-25T01:00:14.463Z,53.56
2019-02-25T01:02:45.962Z,54.49
2019-02-25T01:05:17.658Z,55.24
2019-02-25T01:07:48.924Z,54.50
2019-02-25T01:10:20.111Z,54.95
2019-02-25T01:12:52.045Z,55.02
2019-02-25T01:15:24.044Z,55.47
2019-02-25T01:17:55.371Z,54.69
2019-02-25T01:20:26.937Z,55.37
2019-02-25T01:22:58.121Z,55.10
2019-02-25T01:25:29.910Z,55.31
2019-02-25T01:28:01.074Z,55.20
2019-02-25T01:30:32.646Z,55.53
2019-02-25T01:33:03.921Z,56.92
2019-02-25T01:35:35.263Z,57.01
2019-02-25T01:38:07.145Z,56.77
2019-02-25T01:40:38.986Z,56.20
2019-02-25T01:43:10.222Z,56.11
2019-02-25T01:45:41.895Z,55.81
2019-02-25T01:48:13.095Z,57.68
2019-02-25T01:50:44.301Z,56.94
2019-02-25T01:53:15.950Z,56.12
2019-02-25T01:55:47.143Z,55.27
2019-02-25T01:58:18.920Z,55.52
2019-02-25T02:00:50.103Z,56.51
2019-02-25T02:03:21.972Z,56.65
2019-02-25T02:05:53.196Z,53.82
2019-02-25T02:08:24.813Z,53.64
2019-02-25T02:10:55.924Z,54.93
2019-02-25T02:13:28.017Z,56.34
2019-02-25T02:15:59.207Z,57.65
2019-02-25T02:18:30.909Z,57.24
2019-02-25T02:21:02.217Z,57.42
2019-02-25T02:23:35.717Z,57.22
2019-02-25T02:26:06.950Z,57.86
2019-02-25T02:28:38.119Z,59.18
2019-02-25T02:31:10.027Z,59.26
2019-02-25T02:33:42.167Z,59.26
2019-02-25T02:36:13.369Z,58.98
2019-02-25T02:38:46.586Z,59.16
2019-02-25T02:41:18.329Z,58.95
2019-02-25T02:43:49.660Z,58.37
2019-02-25T02:46:56.815Z,58.28
2019-02-25T02:49:28.009Z,58.29
2019-02-25T02:51:59.195Z,58.19
2019-02-25T02:54:31.506Z,58.24
2019-02-25T02:57:03.081Z,58.42
2019-02-25T02:59:35.037Z,58.54
2019-02-25T03:02:09.871Z,62.27
2019-02-25T03:04:43.499Z,62.01
2019-02-25T03:07:15.101Z,63.65
2019-02-25T03:09:47.650Z,64.44
2019-02-25T03:12:18.947Z,65.22
2019-02-25T03:14:50.118Z,65.11
2019-02-25T03:17:21.921Z,64.40
2019-02-25T03:19:53.803Z,65.35
2019-02-25T03:22:25.044Z,66.06
2019-02-25T03:24:57.037Z,64.22
2019-02-25T03:27:28.321Z,62.61
2019-02-25T03:29:59.960Z,60.68
2019-02-25T03:32:31.168Z,60.48
2019-02-25T03:35:03.230Z,59.94
2019-02-25T03:37:35.032Z,60.63
2019-02-25T03:40:07.695Z,62.26
2019-02-25T03:42:38.955Z,61.92
2019-02-25T03:45:12.042Z,58.99
2019-02-25T03:47:44.773Z,58.55
2019-02-25T03:50:16.100Z,58.83
2019-02-25T03:52:47.936Z,59.23
2019-02-25T03:55:19.758Z,58.89
2019-02-25T03:57:50.907Z,59.22
2019-02-25T04:00:22.853Z,59.27
2019-02-25T04:02:54.075Z,63.64
2019-02-25T04:05:25.477Z,64.24
2019-02-25T04:07:57.488Z,65.30
2019-02-25T04:10:29.033Z,65.60
2019-02-25T04:13:00.419Z,61.95
2019-02-25T04:15:35.790Z,60.34
2019-02-25T04:18:06.973Z,59.73
2019-02-25T04:20:38.168Z,59.53
2019-02-25T04:23:10.508Z,59.40
2019-02-25T04:25:42.075Z,59.49
2019-02-25T04:28:14.127Z,59.96
2019-02-25T04:30:46.018Z,60.91
2019-02-25T04:33:17.191Z,61.39
2019-02-25T04:35:48.931Z,61.13
2019-02-25T04:38:20.122Z,61.19
2019-02-25T04:40:51.910Z,61.16
2019-02-25T04:43:24.053Z,61.08
2019-02-25T04:45:57.534Z,61.03
2019-02-25T04:48:28.949Z,60.89
2019-02-25T04:51:00.151Z,60.89
2019-02-25T04:53:31.351Z,61.00
2019-02-25T04:56:02.904Z,61.12
2019-02-25T04:58:34.116Z,61.86
2019-02-25T05:01:08.160Z,61.95
2019-02-25T05:03:40.804Z,62.96
2019-02-25T05:06:12.006Z,62.92
2019-02-25T05:08:43.198Z,62.77
2019-02-25T05:11:15.298Z,62.26
2019-02-25T05:13:48.543Z,62.81
2019-02-25T05:16:19.955Z,62.63
2019-02-25T05:18:51.152Z,62.84
2019-02-25T05:21:23.036Z,62.92
2019-02-25T05:23:54.975Z,62.17
2019-02-25T05:26:26.157Z,62.50
2019-02-25T05:28:57.934Z,63.04
2019-02-25T05:31:29.899Z,64.37
2019-02-25T05:34:01.095Z,64.17
2019-02-25T05:36:32.363Z,63.57
2019-02-25T05:39:07.486Z,63.78
2019-02-25T05:41:38.943Z,65.61
2019-02-25T05:44:10.542Z,67.64
2019-02-25T05:46:42.024Z,68.11
2019-02-25T05:49:15.975Z,67.49
2019-02-25T05:51:47.171Z,66.93
2019-02-25T05:54:18.946Z,67.10
2019-02-25T05:56:51.729Z,67.02
2019-02-25T05:59:22.925Z,66.00
2019-02-25T06:01:54.126Z,64.74
2019-02-25T06:04:25.490Z,64.87
2019-02-25T06:06:56.927Z,63.90
2019-02-25T06:09:28.134Z,63.85
2019-02-25T06:12:00.057Z,63.57
2019-02-25T06:14:31.435Z,64.24
2019-02-25T06:17:03.053Z,64.86
2019-02-25T06:19:35.035Z,65.39
2019-02-25T06:22:07.046Z,65.37
2019-02-25T06:24:38.246Z,66.79
2019-02-25T06:27:10.081Z,66.67
2019-02-25T06:29:42.239Z,67.01
2019-02-25T06:32:13.924Z,67.31
2019-02-25T06:34:45.112Z,67.36
2019-02-25T06:37:16.945Z,66.86
2019-02-25T06:39:49.089Z,64.95
2019-02-25T06:42:21.944Z,64.83
2019-02-25T06:44:53.113Z,64.30
2019-02-25T06:47:25.175Z,64.60
2019-02-25T06:49:56.940Z,64.52
2019-02-25T06:52:28.138Z,64.65
2019-02-25T06:55:00.054Z,66.05
2019-02-25T06:57:31.238Z,67.46
2019-02-25T07:00:04.288Z,63.56
2019-02-25T07:02:38.350Z,62.80
2019-02-25T07:05:26.433Z,63.70
2019-02-25T07:08:01.275Z,65.13
2019-02-25T07:10:48.314Z,65.60
2019-02-25T07:13:42.654Z,66.03
2019-02-25T07:16:38.854Z,66.72
2019-02-25T07:19:41.210Z,66.15
2019-02-25T07:22:26.785Z,65.76
2019-02-25T07:25:17.033Z,65.83
2019-02-25T07:28:16.891Z,66.04
2019-02-25T07:31:13.397Z,65.76
2019-02-25T07:33:57.800Z,64.76
2019-02-25T07:36:36.746Z,63.57
2019-02-25T07:39:26.345Z,63.61
2019-02-25T07:42:20.017Z,63.40
2019-02-25T07:45:13.140Z,63.34
2019-02-25T07:47:52.917Z,62.85
2019-02-25T07:50:59.119Z,61.28
2019-02-25T07:53:48.575Z,60.57
2019-02-25T07:56:44.915Z,60.86
2019-02-25T07:59:31.307Z,60.57
2019-02-25T08:02:40.986Z,60.93
2019-02-25T08:05:33.872Z,59.87
2019-02-25T08:08:11.601Z,60.51
2019-02-25T08:10:56.034Z,61.31
2019-02-25T08:13:36.213Z,61.48
2019-02-25T08:16:30.917Z,60.88
2019-02-25T08:19:30.106Z,60.94
2019-02-25T08:22:15.021Z,60.80
2019-02-25T08:25:02.045Z,59.77
2019-02-25T08:27:44.982Z,60.96
2019-02-25T08:30:41.472Z,60.28
2019-02-25T08:33:47.140Z,59.41
2019-02-25T08:37:43.349Z,58.04
2019-02-25T08:40:55.076Z,58.02
2019-02-25T08:43:44.302Z,57.55
2019-02-25T08:46:26.677Z,57.37
2019-02-25T08:49:01.389Z,56.09
2019-02-25T08:51:32.660Z,55.93
2019-02-25T08:54:04.888Z,56.22
2019-02-25T08:56:36.098Z,56.08
2019-02-25T08:59:08.126Z,53.50
2019-02-25T09:01:43.205Z,52.48
2019-02-25T09:04:16.746Z,53.02
2019-02-25T09:06:47.943Z,52.66
2019-02-25T09:09:19.896Z,52.55
2019-02-25T09:11:51.870Z,50.35
2019-02-25T09:14:23.054Z,49.60
2019-02-25T09:16:55.795Z,49.88
2019-02-25T09:19:27.256Z,49.76
2019-02-25T09:21:59.057Z,49.67
2019-02-25T09:24:31.006Z,47.50
2019-02-25T09:27:04.755Z,46.22
2019-02-25T09:29:35.941Z,45.74
2019-02-25T09:32:07.605Z,46.19
2019-02-25T09:34:38.967Z,45.50
2019-02-25T09:37:10.209Z,43.25
2019-02-25T09:39:43.762Z,45.21
2019-02-25T09:42:14.950Z,43.97
2019-02-25T09:44:46.892Z,43.17
2019-02-25T09:47:18.082Z,43.63
2019-02-25T09:49:51.118Z,43.51
2019-02-25T09:52:22.374Z,41.94
2019-02-25T09:54:54.853Z,43.00
2019-02-25T09:57:26.041Z,42.88
2019-02-25T09:59:58.758Z,43.69
2019-02-25T10:02:29.974Z,43.64
2019-02-25T10:05:01.140Z,43.38
2019-02-25T10:07:32.409Z,43.88
2019-02-25T10:10:04.154Z,43.99
2019-02-25T10:12:36.898Z,42.88
2019-02-25T10:15:09.658Z,43.16
2019-02-25T10:17:41.290Z,44.55
2019-02-25T10:20:13.029Z,43.62
2019-02-25T10:22:45.773Z,42.88
2019-02-25T10:25:16.943Z,43.78
2019-02-25T10:27:49.649Z,44.26
2019-02-25T10:30:21.126Z,43.81
2019-02-25T10:32:52.906Z,43.67
2019-02-25T10:35:24.915Z,43.05
2019-02-25T10:37:58.016Z,42.46
2019-02-25T10:40:29.195Z,41.67
2019-02-25T10:43:00.993Z,41.87
2019-02-25T10:45:32.254Z,42.07
2019-02-25T10:48:03.961Z,41.63
2019-02-25T10:50:36.045Z,41.18
2019-02-25T10:53:07.892Z,41.00
2019-02-25T10:55:45.084Z,41.25
2019-02-25T10:58:16.787Z,40.53
2019-02-25T11:00:47.991Z,40.28
2019-02-25T11:03:20.019Z,40.72
2019-02-25T11:05:53.966Z,40.18
2019-02-25T11:08:26.209Z,40.61
2019-02-25T11:11:10.271Z,40.80
2019-02-25T11:13:42.027Z,40.06
2019-02-25T11:16:22.776Z,39.05
2019-02-25T11:19:13.200Z,37.91
2019-02-25T11:21:57.985Z,37.73
2019-02-25T11:24:57.730Z,38.21
2019-02-25T11:27:55.796Z,38.49
2019-02-25T11:30:54.231Z,37.75
2019-02-25T11:33:56.497Z,38.77
2019-02-25T11:36:47.687Z,37.53
2019-02-25T11:39:32.508Z,38.68
2019-02-25T11:42:32.969Z,39.19
2019-02-25T11:45:29.600Z,38.15
2019-02-25T11:48:27.901Z,38.92
2019-02-25T11:51:20.979Z,39.44
2019-02-25T11:54:11.797Z,39.25
2019-02-25T11:56:43.255Z,39.63
2019-02-25T11:59:15.466Z,40.20
2019-02-25T12:01:46.937Z,40.06
2019-02-25T12:04:18.879Z,40.68
2019-02-25T12:06:50.075Z,39.85
2019-02-25T12:09:22.092Z,39.71
2019-02-25T12:11:53.950Z,39.92
2019-02-25T12:14:25.440Z,40.80
2019-02-25T12:16:57.000Z,41.03
2019-02-25T12:19:28.214Z,41.62
2019-02-25T12:22:00.797Z,41.93
2019-02-25T12:24:32.002Z,42.35
2019-02-25T12:27:03.766Z,42.46
2019-02-25T12:29:35.073Z,41.84
2019-02-25T12:32:06.895Z,41.13
2019-02-25T12:34:38.890Z,41.93
2019-02-25T12:37:10.202Z,41.96
2019-02-25T12:39:42.925Z,41.09
2019-02-25T12:42:14.125Z,41.01
2019-02-25T12:44:45.935Z,41.06
2019-02-25T12:47:17.889Z,39.77
2019-02-25T12:49:49.187Z,40.44
2019-02-25T12:52:20.449Z,39.82
2019-02-25T12:54:52.251Z,40.25
2019-02-25T12:57:24.215Z,39.73
2019-02-25T12:59:55.416Z,40.00
2019-02-25T13:02:27.028Z,39.56
2019-02-25T13:05:00.424Z,39.05
2019-02-25T13:07:32.902Z,39.42
2019-02-25T13:10:04.595Z,39.43
2019-02-25T13:12:35.946Z,39.39
2019-02-25T13:17:42.090Z,39.51
2019-02-25T13:20:14.256Z,40.64
2019-02-25T13:22:45.950Z,40.87
2019-02-25T13:25:17.227Z,40.21
2019-02-25T13:27:49.139Z,40.34
2019-02-25T13:30:21.302Z,40.29
2019-02-25T13:32:52.990Z,40.38
2019-02-25T13:35:24.336Z,40.28
2019-02-25T13:37:56.786Z,39.97
2019-02-25T13:40:28.772Z,40.74
2019-02-25T13:42:59.982Z,40.51
2019-02-25T13:45:31.655Z,41.15
2019-02-25T13:48:03.095Z,41.11
2019-02-25T13:50:35.019Z,41.22
2019-02-25T13:53:06.299Z,41.90
2019-02-25T13:55:38.026Z,42.19
2019-02-25T13:58:09.835Z,42.43
2019-02-25T14:00:41.911Z,42.48
2019-02-25T14:03:13.787Z,41.59
2019-02-25T14:05:44.997Z,41.56
2019-02-25T14:08:16.498Z,42.02
2019-02-25T14:10:48.079Z,41.16
2019-02-25T14:13:25.887Z,40.78
2019-02-25T14:15:57.447Z,41.08
2019-02-25T14:18:29.031Z,40.70
2019-02-25T14:21:00.984Z,40.85
2019-02-25T14:23:32.339Z,40.13
2019-02-25T14:26:04.078Z,39.46
2019-02-25T14:28:36.159Z,38.38
2019-02-25T14:31:08.472Z,38.75
2019-02-25T14:33:40.101Z,39.25
2019-02-25T14:36:11.933Z,38.35
2019-02-25T14:38:43.167Z,38.13
2019-02-25T14:41:16.155Z,38.86
2019-02-25T14:43:49.203Z,38.96
2019-02-25T14:46:22.622Z,38.38
2019-02-25T14:48:54.009Z,38.49
2019-02-25T14:51:25.209Z,38.88
2019-02-25T14:53:56.954Z,38.92
2019-02-25T14:56:29.938Z,38.51
2019-02-25T14:59:05.510Z,38.41
2019-02-25T15:01:34.698Z,38.54
2019-02-25T15:04:06.505Z,38.78
2019-02-25T15:06:39.734Z,38.27
2019-02-25T15:09:14.257Z,36.71
2019-02-25T15:11:46.943Z,36.88
2019-02-25T15:14:19.238Z,37.35
2019-02-25T15:16:53.119Z,37.81
2019-02-25T15:19:24.919Z,37.56
2019-02-25T15:21:58.450Z,38.32
2019-02-25T15:24:30.027Z,38.90
2019-02-25T15:27:02.400Z,39.09
2019-02-25T15:29:35.325Z,39.01
2019-02-25T15:32:08.079Z,39.15
2019-02-25T15:34:39.951Z,38.58
2019-02-25T15:37:11.884Z,39.84
2019-02-25T15:39:45.748Z,40.56
2019-02-25T15:42:17.118Z,40.92
2019-02-25T15:44:49.712Z,41.62
2019-02-25T15:47:22.820Z,42.06
2019-02-25T15:49:55.375Z,43.13
2019-02-25T15:52:27.754Z,44.24
2019-02-25T15:55:01.887Z,44.46
2019-02-25T15:57:34.924Z,44.62
2019-02-25T16:00:07.525Z,45.03
2019-02-25T16:02:39.007Z,45.37
2019-02-25T16:05:11.136Z,46.25
2019-02-25T16:07:44.996Z,48.13
2019-02-25T16:10:18.526Z,48.53
2019-02-25T16:12:53.782Z,49.33
2019-02-25T16:15:25.055Z,50.88
2019-02-25T16:17:56.815Z,51.13
2019-02-25T16:20:32.240Z,51.54
2019-02-25T16:23:03.277Z,52.22
2019-02-25T16:25:35.973Z,51.83
2019-02-25T16:28:08.138Z,52.04
2019-02-25T16:30:42.086Z,52.96
2019-02-25T16:33:14.485Z,53.24
2019-02-25T16:35:46.293Z,54.71
2019-02-25T16:38:21.094Z,54.73
2019-02-25T16:40:54.638Z,55.24
2019-02-25T16:43:25.361Z,55.55
2019-02-25T16:45:56.901Z,56.06
2019-02-25T16:48:30.210Z,56.16
2019-02-25T16:51:02.714Z,57.66
2019-02-25T16:53:38.841Z,56.61
2019-02-25T16:56:10.050Z,56.73
2019-02-25T16:58:41.925Z,57.62
2019-02-25T17:01:13.236Z,58.06
2019-02-25T17:03:47.742Z,58.25
2019-02-25T17:06:20.744Z,58.10
2019-02-25T17:08:53.523Z,58.31
2019-02-25T17:11:25.078Z,57.96
2019-02-25T17:13:57.786Z,58.24
2019-02-25T17:16:29.910Z,57.80
2019-02-25T17:19:01.868Z,58.55
2019-02-25T17:21:33.187Z,58.22
2019-02-25T17:24:05.710Z,59.44
2019-02-25T17:26:37.994Z,58.77
2019-02-25T17:29:10.497Z,59.28
2019-02-25T17:31:41.925Z,58.75
2019-02-25T17:34:17.003Z,59.56
2019-02-25T17:36:50.106Z,59.72
2019-02-25T17:39:21.993Z,60.65
2019-02-25T17:41:53.182Z,59.96
2019-02-25T17:44:27.769Z,60.68
2019-02-25T17:47:00.420Z,60.90
2019-02-25T17:49:31.665Z,60.85
2019-02-25T17:52:04.014Z,61.10
2019-02-25T17:54:37.743Z,62.58
2019-02-25T17:57:11.794Z,63.57
2019-02-25T17:59:44.183Z,63.28
2019-02-25T18:02:16.016Z,62.53
2019-02-25T18:04:49.242Z,62.60
2019-02-25T18:07:20.972Z,62.76
2019-02-25T18:09:52.227Z,62.66
2019-02-25T18:12:25.609Z,62.54
2019-02-25T18:14:58.850Z,62.98
2019-02-25T18:17:31.055Z,63.31
2019-02-25T18:20:03.097Z,63.35
2019-02-25T18:22:36.732Z,64.29
2019-02-25T18:25:07.998Z,64.29
2019-02-25T18:27:41.492Z,64.68
2019-02-25T18:30:13.445Z,65.04
2019-02-25T18:32:45.466Z,65.34
2019-02-25T18:35:18.578Z,64.29
2019-02-25T18:37:49.942Z,64.50
2019-02-25T18:40:23.876Z,65.55
2019-02-25T18:42:56.443Z,65.36
2019-02-25T18:45:28.298Z,66.86
2019-02-25T18:48:00.075Z,66.49
2019-02-25T18:50:31.619Z,66.94
2019-02-25T18:53:30.186Z,67.01
2019-02-25T18:56:02.273Z,66.51
2019-02-25T18:58:35.272Z,67.07
2019-02-25T19:01:09.700Z,67.55
2019-02-25T19:03:41.113Z,67.29
2019-02-25T19:06:14.577Z,66.89
2019-02-25T19:08:47.316Z,67.63
2019-02-25T19:11:21.213Z,67.54
2019-02-25T19:13:53.961Z,67.28
2019-02-25T19:16:25.153Z,67.36
2019-02-25T19:19:08.066Z,67.13
2019-02-25T19:21:40.744Z,67.59
2019-02-25T19:24:14.841Z,68.86
2019-02-25T19:26:48.594Z,68.83
2019-02-25T19:29:21.779Z,68.91
2019-02-25T19:31:53.938Z,69.78
2019-02-25T19:34:25.126Z,68.99
2019-02-25T19:37:00.178Z,69.87
2019-02-25T19:39:29.975Z,70.35
2019-02-25T19:42:02.183Z,69.88
2019-02-25T19:44:34.350Z,70.96
2019-02-25T19:47:07.985Z,70.98
2019-02-25T19:49:41.407Z,70.90
2019-02-25T19:52:14.355Z,70.78
2019-02-25T19:54:48.175Z,71.22
2019-02-25T19:57:21.027Z,71.03
2019-02-25T19:59:52.996Z,70.26
2019-02-25T20:02:27.031Z,70.71
2019-02-25T20:04:57.957Z,71.15
2019-02-25T20:07:30.909Z,71.37
2019-02-25T20:10:02.138Z,71.36
2019-02-25T20:12:35.181Z,71.34
2019-02-25T20:15:11.205Z,71.35
2019-02-25T20:17:44.158Z,71.51
2019-02-25T20:20:16.390Z,72.92
2019-02-25T20:22:48.120Z,72.22
2019-02-25T20:25:23.721Z,72.37
2019-02-25T20:27:55.095Z,72.37
2019-02-25T20:30:28.826Z,73.47
2019-02-25T20:33:03.207Z,74.36
2019-02-25T20:35:33.932Z,73.93
2019-02-25T20:38:05.330Z,73.69
2019-02-25T20:40:37.003Z,73.73
2019-02-25T20:43:08.306Z,74.62
2019-02-25T20:45:39.958Z,74.58
2019-02-25T20:48:11.523Z,74.62
2019-02-25T20:50:44.649Z,74.28
2019-02-25T20:53:16.056Z,74.41
2019-02-25T20:55:48.212Z,74.78
2019-02-25T20:58:23.241Z,74.90
2019-02-25T21:00:54.930Z,74.62
2019-02-25T21:03:27.648Z,74.27
2019-02-25T21:05:59.895Z,73.68
2019-02-25T21:08:31.091Z,73.61
2019-02-25T21:11:08.588Z,73.57
2019-02-25T21:13:37.992Z,73.10
2019-02-25T21:16:10.501Z,72.82
2019-02-25T21:18:41.941Z,72.16
2019-02-25T21:21:14.431Z,72.17
2019-02-25T21:23:46.895Z,72.22
2019-02-25T21:26:18.844Z,72.24
2019-02-25T21:28:50.023Z,72.17
2019-02-25T21:31:23.999Z,71.58
2019-02-25T21:33:56.559Z,71.01
2019-02-25T21:36:29.525Z,71.45
2019-02-25T21:39:00.945Z,72.02
2019-02-25T21:41:32.585Z,72.09
2019-02-25T21:44:04.101Z,72.02
2019-02-25T21:46:36.037Z,72.50
2019-02-25T21:49:08.408Z,72.25
2019-02-25T21:51:41.640Z,72.38
2019-02-25T21:54:16.179Z,71.86
2019-02-25T21:56:48.053Z,72.01
2019-02-25T21:59:19.965Z,71.96
2019-02-25T22:01:52.956Z,71.95
2019-02-25T22:04:24.808Z,71.89
2019-02-25T22:06:58.165Z,72.02
2019-02-25T22:09:36.377Z,71.96
2019-02-25T22:12:02.927Z,71.94
2019-02-25T22:14:34.777Z,72.10
2019-02-25T22:17:05.987Z,72.12
2019-02-25T22:19:39.681Z,72.16
2019-02-25T22:22:11.418Z,71.94
2019-02-25T22:24:44.940Z,71.74
2019-02-25T22:27:16.694Z,71.64
2019-02-25T22:29:49.703Z,71.63
2019-02-25T22:32:21.112Z,71.75
2019-02-25T22:34:53.368Z,71.41
2019-02-25T22:37:26.668Z,72.06
2019-02-25T22:39:59.518Z,72.21
2019-02-25T22:42:32.987Z,72.12
2019-02-25T22:45:05.658Z,72.04
2019-02-25T22:47:36.915Z,72.96
2019-02-25T22:50:10.710Z,73.10
2019-02-25T22:52:42.733Z,73.08
2019-02-25T22:55:15.385Z,72.82
2019-02-25T23:01:17.924Z,74.04
2019-02-25T23:03:52.161Z,74.10
2019-02-25T23:06:23.144Z,74.62
2019-02-25T23:08:56.445Z,74.13
2019-02-25T23:11:27.909Z,74.27
2019-02-25T23:13:59.110Z,73.87
2019-02-25T23:16:30.953Z,73.28
2019-02-25T23:19:02.140Z,74.58
2019-02-25T23:21:33.993Z,73.71
2019-02-25T23:24:07.934Z,74.81
2019-02-25T23:26:40.816Z,74.61
2019-02-25T23:29:13.221Z,74.65
2019-02-25T23:31:46.435Z,74.54
2019-02-25T23:34:17.998Z,74.61
2019-02-25T23:36:51.750Z,74.65
2019-02-25T23:39:23.533Z,74.63
2019-02-25T23:41:55.027Z,75.01
2019-02-25T23:44:26.219Z,74.61
2019-02-25T23:47:00.198Z,73.79
2019-02-25T23:49:30.923Z,74.35
2019-02-25T23:52:02.102Z,74.49
2019-02-25T23:54:33.317Z,74.18
2019-02-25T23:57:05.056Z,74.38
2019-02-25T23:59:40.472Z,74.16
